<?xml version="1.0" encoding="UTF-8" standalone="no" ?>
<gpx xmlns="http://www.topografix.com/GPX/1/1" xmlns:xsi="http://www.w3.org/2001/XMLSchema-instance" xsi:schemaLocation="http://www.topografix.com/GPX/1/1 http://www.topografix.com/GPX/1/1/gpx.xsd" version="1.1" creator="VisuGPX - https://www.visugpx.com">
  <metadata>
    <name>Lauw 2016</name>
    <desc><![CDATA[marche pop Lauw 2016]]></desc>
  </metadata>
  <trk>
    <name><![CDATA[Lauw 2016_1]]></name>
    <trkseg>
      <trkpt lat="47.7582" lon="7.01831">
        <ele>381</ele>
        <time>2016-08-13T07:20:01Z</time>
      </trkpt>
      <trkpt lat="47.7582" lon="7.01831">
        <ele>431</ele>
        <time>2016-08-13T07:20:07Z</time>
      </trkpt>
      <trkpt lat="47.75803" lon="7.01839">
        <ele>427</ele>
        <time>2016-08-13T07:20:20Z</time>
      </trkpt>
      <trkpt lat="47.75791" lon="7.01845">
        <ele>424</ele>
        <time>2016-08-13T07:20:31Z</time>
      </trkpt>
      <trkpt lat="47.75768" lon="7.01856">
        <ele>425</ele>
        <time>2016-08-13T07:20:49Z</time>
      </trkpt>
      <trkpt lat="47.75752" lon="7.01857">
        <ele>417</ele>
        <time>2016-08-13T07:21:02Z</time>
      </trkpt>
      <trkpt lat="47.75738" lon="7.01852">
        <ele>418</ele>
        <time>2016-08-13T07:21:14Z</time>
      </trkpt>
      <trkpt lat="47.75726" lon="7.01857">
        <ele>421</ele>
        <time>2016-08-13T07:21:25Z</time>
      </trkpt>
      <trkpt lat="47.75709" lon="7.01862">
        <ele>430</ele>
        <time>2016-08-13T07:21:41Z</time>
      </trkpt>
      <trkpt lat="47.75698" lon="7.01845">
        <ele>431</ele>
        <time>2016-08-13T07:21:50Z</time>
      </trkpt>
      <trkpt lat="47.75698" lon="7.01843">
        <ele>432</ele>
        <time>2016-08-13T07:21:58Z</time>
      </trkpt>
      <trkpt lat="47.75677" lon="7.01835">
        <ele>431</ele>
        <time>2016-08-13T07:22:21Z</time>
      </trkpt>
      <trkpt lat="47.75654" lon="7.01841">
        <ele>427</ele>
        <time>2016-08-13T07:22:38Z</time>
      </trkpt>
      <trkpt lat="47.7564" lon="7.01846">
        <ele>428</ele>
        <time>2016-08-13T07:22:50Z</time>
      </trkpt>
      <trkpt lat="47.75631" lon="7.01853">
        <ele>427</ele>
        <time>2016-08-13T07:22:58Z</time>
      </trkpt>
      <trkpt lat="47.75621" lon="7.01871">
        <ele>431</ele>
        <time>2016-08-13T07:23:16Z</time>
      </trkpt>
      <trkpt lat="47.75612" lon="7.01883">
        <ele>428</ele>
        <time>2016-08-13T07:23:28Z</time>
      </trkpt>
      <trkpt lat="47.7561" lon="7.0189">
        <ele>428</ele>
        <time>2016-08-13T07:23:31Z</time>
      </trkpt>
      <trkpt lat="47.7561" lon="7.01893">
        <ele>428</ele>
        <time>2016-08-13T07:23:38Z</time>
      </trkpt>
      <trkpt lat="47.75611" lon="7.01868">
        <ele>429</ele>
        <time>2016-08-13T07:25:13Z</time>
      </trkpt>
      <trkpt lat="47.75625" lon="7.01856">
        <ele>427</ele>
        <time>2016-08-13T07:25:26Z</time>
      </trkpt>
      <trkpt lat="47.75645" lon="7.01845">
        <ele>425</ele>
        <time>2016-08-13T07:25:46Z</time>
      </trkpt>
      <trkpt lat="47.75665" lon="7.01837">
        <ele>426</ele>
        <time>2016-08-13T07:26:03Z</time>
      </trkpt>
      <trkpt lat="47.75687" lon="7.01848">
        <ele>425</ele>
        <time>2016-08-13T07:26:20Z</time>
      </trkpt>
      <trkpt lat="47.75699" lon="7.01859">
        <ele>424</ele>
        <time>2016-08-13T07:26:32Z</time>
      </trkpt>
      <trkpt lat="47.75709" lon="7.01881">
        <ele>426</ele>
        <time>2016-08-13T07:26:48Z</time>
      </trkpt>
      <trkpt lat="47.75715" lon="7.01911">
        <ele>425</ele>
        <time>2016-08-13T07:27:06Z</time>
      </trkpt>
      <trkpt lat="47.75723" lon="7.0193">
        <ele>428</ele>
        <time>2016-08-13T07:27:18Z</time>
      </trkpt>
      <trkpt lat="47.7573" lon="7.01951">
        <ele>426</ele>
        <time>2016-08-13T07:27:32Z</time>
      </trkpt>
      <trkpt lat="47.75741" lon="7.01971">
        <ele>424</ele>
        <time>2016-08-13T07:27:46Z</time>
      </trkpt>
      <trkpt lat="47.75753" lon="7.01999">
        <ele>425</ele>
        <time>2016-08-13T07:28:03Z</time>
      </trkpt>
      <trkpt lat="47.75767" lon="7.02028">
        <ele>426</ele>
        <time>2016-08-13T07:28:22Z</time>
      </trkpt>
      <trkpt lat="47.75779" lon="7.0204">
        <ele>424</ele>
        <time>2016-08-13T07:28:39Z</time>
      </trkpt>
      <trkpt lat="47.75784" lon="7.02066">
        <ele>423</ele>
        <time>2016-08-13T07:28:53Z</time>
      </trkpt>
      <trkpt lat="47.75788" lon="7.02092">
        <ele>424</ele>
        <time>2016-08-13T07:29:08Z</time>
      </trkpt>
      <trkpt lat="47.7579" lon="7.02108">
        <ele>427</ele>
        <time>2016-08-13T07:29:17Z</time>
      </trkpt>
      <trkpt lat="47.75791" lon="7.02132">
        <ele>426</ele>
        <time>2016-08-13T07:29:30Z</time>
      </trkpt>
      <trkpt lat="47.758" lon="7.02143">
        <ele>426</ele>
        <time>2016-08-13T07:29:44Z</time>
      </trkpt>
      <trkpt lat="47.7582" lon="7.02137">
        <ele>421</ele>
        <time>2016-08-13T07:30:01Z</time>
      </trkpt>
      <trkpt lat="47.75832" lon="7.02136">
        <ele>419</ele>
        <time>2016-08-13T07:30:11Z</time>
      </trkpt>
      <trkpt lat="47.75849" lon="7.02133">
        <ele>419</ele>
        <time>2016-08-13T07:30:24Z</time>
      </trkpt>
      <trkpt lat="47.75865" lon="7.02127">
        <ele>420</ele>
        <time>2016-08-13T07:30:38Z</time>
      </trkpt>
      <trkpt lat="47.75886" lon="7.02122">
        <ele>422</ele>
        <time>2016-08-13T07:30:54Z</time>
      </trkpt>
      <trkpt lat="47.75905" lon="7.02118">
        <ele>426</ele>
        <time>2016-08-13T07:31:07Z</time>
      </trkpt>
      <trkpt lat="47.75917" lon="7.02116">
        <ele>425</ele>
        <time>2016-08-13T07:31:17Z</time>
      </trkpt>
      <trkpt lat="47.75931" lon="7.0214">
        <ele>425</ele>
        <time>2016-08-13T07:31:34Z</time>
      </trkpt>
      <trkpt lat="47.75934" lon="7.02145">
        <ele>426</ele>
        <time>2016-08-13T07:31:37Z</time>
      </trkpt>
      <trkpt lat="47.75931" lon="7.0214">
        <ele>425</ele>
        <time>2016-08-13T07:31:46Z</time>
      </trkpt>
      <trkpt lat="47.75938" lon="7.02155">
        <ele>427</ele>
        <time>2016-08-13T07:33:27Z</time>
      </trkpt>
      <trkpt lat="47.75939" lon="7.02169">
        <ele>428</ele>
        <time>2016-08-13T07:33:33Z</time>
      </trkpt>
      <trkpt lat="47.7594" lon="7.02196">
        <ele>427</ele>
        <time>2016-08-13T07:33:45Z</time>
      </trkpt>
      <trkpt lat="47.7594" lon="7.02214">
        <ele>429</ele>
        <time>2016-08-13T07:33:54Z</time>
      </trkpt>
      <trkpt lat="47.75943" lon="7.02241">
        <ele>428</ele>
        <time>2016-08-13T07:34:08Z</time>
      </trkpt>
      <trkpt lat="47.75949" lon="7.02272">
        <ele>430</ele>
        <time>2016-08-13T07:34:24Z</time>
      </trkpt>
      <trkpt lat="47.75949" lon="7.02302">
        <ele>428</ele>
        <time>2016-08-13T07:34:39Z</time>
      </trkpt>
      <trkpt lat="47.7595" lon="7.02322">
        <ele>427</ele>
        <time>2016-08-13T07:34:49Z</time>
      </trkpt>
      <trkpt lat="47.75955" lon="7.02345">
        <ele>428</ele>
        <time>2016-08-13T07:35:01Z</time>
      </trkpt>
      <trkpt lat="47.75961" lon="7.02371">
        <ele>428</ele>
        <time>2016-08-13T07:35:15Z</time>
      </trkpt>
      <trkpt lat="47.75966" lon="7.02389">
        <ele>428</ele>
        <time>2016-08-13T07:35:25Z</time>
      </trkpt>
      <trkpt lat="47.75971" lon="7.02405">
        <ele>428</ele>
        <time>2016-08-13T07:35:34Z</time>
      </trkpt>
      <trkpt lat="47.75975" lon="7.02422">
        <ele>427</ele>
        <time>2016-08-13T07:35:43Z</time>
      </trkpt>
      <trkpt lat="47.75982" lon="7.02449">
        <ele>426</ele>
        <time>2016-08-13T07:35:58Z</time>
      </trkpt>
      <trkpt lat="47.75987" lon="7.02471">
        <ele>425</ele>
        <time>2016-08-13T07:36:10Z</time>
      </trkpt>
      <trkpt lat="47.75993" lon="7.02489">
        <ele>428</ele>
        <time>2016-08-13T07:36:20Z</time>
      </trkpt>
      <trkpt lat="47.76" lon="7.02519">
        <ele>428</ele>
        <time>2016-08-13T07:36:36Z</time>
      </trkpt>
      <trkpt lat="47.76006" lon="7.02541">
        <ele>429</ele>
        <time>2016-08-13T07:36:48Z</time>
      </trkpt>
      <trkpt lat="47.76013" lon="7.02564">
        <ele>427</ele>
        <time>2016-08-13T07:37:02Z</time>
      </trkpt>
      <trkpt lat="47.76033" lon="7.0257">
        <ele>428</ele>
        <time>2016-08-13T07:37:17Z</time>
      </trkpt>
      <trkpt lat="47.76047" lon="7.02576">
        <ele>429</ele>
        <time>2016-08-13T07:37:30Z</time>
      </trkpt>
      <trkpt lat="47.76068" lon="7.0259">
        <ele>431</ele>
        <time>2016-08-13T07:37:47Z</time>
      </trkpt>
      <trkpt lat="47.76078" lon="7.02605">
        <ele>429</ele>
        <time>2016-08-13T07:37:58Z</time>
      </trkpt>
      <trkpt lat="47.76086" lon="7.02628">
        <ele>428</ele>
        <time>2016-08-13T07:38:12Z</time>
      </trkpt>
      <trkpt lat="47.76091" lon="7.02652">
        <ele>428</ele>
        <time>2016-08-13T07:38:26Z</time>
      </trkpt>
      <trkpt lat="47.76098" lon="7.02679">
        <ele>428</ele>
        <time>2016-08-13T07:38:41Z</time>
      </trkpt>
      <trkpt lat="47.76103" lon="7.02704">
        <ele>430</ele>
        <time>2016-08-13T07:38:54Z</time>
      </trkpt>
      <trkpt lat="47.76106" lon="7.0272">
        <ele>431</ele>
        <time>2016-08-13T07:39:03Z</time>
      </trkpt>
      <trkpt lat="47.76111" lon="7.0275">
        <ele>428</ele>
        <time>2016-08-13T07:39:19Z</time>
      </trkpt>
      <trkpt lat="47.76117" lon="7.0278">
        <ele>431</ele>
        <time>2016-08-13T07:39:36Z</time>
      </trkpt>
      <trkpt lat="47.76126" lon="7.02805">
        <ele>435</ele>
        <time>2016-08-13T07:39:50Z</time>
      </trkpt>
      <trkpt lat="47.76133" lon="7.02825">
        <ele>439</ele>
        <time>2016-08-13T07:40:02Z</time>
      </trkpt>
      <trkpt lat="47.76144" lon="7.02854">
        <ele>436</ele>
        <time>2016-08-13T07:40:19Z</time>
      </trkpt>
      <trkpt lat="47.76153" lon="7.02874">
        <ele>432</ele>
        <time>2016-08-13T07:40:33Z</time>
      </trkpt>
      <trkpt lat="47.7616" lon="7.02887">
        <ele>432</ele>
        <time>2016-08-13T07:40:41Z</time>
      </trkpt>
      <trkpt lat="47.76168" lon="7.02902">
        <ele>431</ele>
        <time>2016-08-13T07:40:50Z</time>
      </trkpt>
      <trkpt lat="47.7618" lon="7.02922">
        <ele>430</ele>
        <time>2016-08-13T07:41:04Z</time>
      </trkpt>
      <trkpt lat="47.76192" lon="7.02942">
        <ele>430</ele>
        <time>2016-08-13T07:41:18Z</time>
      </trkpt>
      <trkpt lat="47.76203" lon="7.0296">
        <ele>427</ele>
        <time>2016-08-13T07:41:31Z</time>
      </trkpt>
      <trkpt lat="47.76212" lon="7.02975">
        <ele>427</ele>
        <time>2016-08-13T07:41:41Z</time>
      </trkpt>
      <trkpt lat="47.76226" lon="7.03001">
        <ele>430</ele>
        <time>2016-08-13T07:41:57Z</time>
      </trkpt>
      <trkpt lat="47.76241" lon="7.03017">
        <ele>431</ele>
        <time>2016-08-13T07:42:11Z</time>
      </trkpt>
      <trkpt lat="47.7626" lon="7.03031">
        <ele>432</ele>
        <time>2016-08-13T07:42:26Z</time>
      </trkpt>
      <trkpt lat="47.76273" lon="7.03048">
        <ele>432</ele>
        <time>2016-08-13T07:42:39Z</time>
      </trkpt>
      <trkpt lat="47.76281" lon="7.03056">
        <ele>431</ele>
        <time>2016-08-13T07:42:47Z</time>
      </trkpt>
      <trkpt lat="47.76296" lon="7.03077">
        <ele>433</ele>
        <time>2016-08-13T07:43:02Z</time>
      </trkpt>
      <trkpt lat="47.76311" lon="7.03097">
        <ele>431</ele>
        <time>2016-08-13T07:43:18Z</time>
      </trkpt>
      <trkpt lat="47.76322" lon="7.03111">
        <ele>433</ele>
        <time>2016-08-13T07:43:30Z</time>
      </trkpt>
      <trkpt lat="47.76334" lon="7.03124">
        <ele>434</ele>
        <time>2016-08-13T07:43:43Z</time>
      </trkpt>
      <trkpt lat="47.76345" lon="7.03144">
        <ele>436</ele>
        <time>2016-08-13T07:44:00Z</time>
      </trkpt>
      <trkpt lat="47.76359" lon="7.03166">
        <ele>439</ele>
        <time>2016-08-13T07:44:19Z</time>
      </trkpt>
      <trkpt lat="47.76372" lon="7.03186">
        <ele>436</ele>
        <time>2016-08-13T07:44:37Z</time>
      </trkpt>
      <trkpt lat="47.76384" lon="7.03205">
        <ele>437</ele>
        <time>2016-08-13T07:44:53Z</time>
      </trkpt>
      <trkpt lat="47.76392" lon="7.03216">
        <ele>437</ele>
        <time>2016-08-13T07:45:03Z</time>
      </trkpt>
      <trkpt lat="47.76401" lon="7.03235">
        <ele>440</ele>
        <time>2016-08-13T07:45:17Z</time>
      </trkpt>
      <trkpt lat="47.76415" lon="7.03251">
        <ele>442</ele>
        <time>2016-08-13T07:45:34Z</time>
      </trkpt>
      <trkpt lat="47.7642" lon="7.03268">
        <ele>445</ele>
        <time>2016-08-13T07:45:47Z</time>
      </trkpt>
      <trkpt lat="47.76431" lon="7.03297">
        <ele>449</ele>
        <time>2016-08-13T07:46:07Z</time>
      </trkpt>
      <trkpt lat="47.76442" lon="7.03311">
        <ele>447</ele>
        <time>2016-08-13T07:46:23Z</time>
      </trkpt>
      <trkpt lat="47.76456" lon="7.03323">
        <ele>451</ele>
        <time>2016-08-13T07:46:37Z</time>
      </trkpt>
      <trkpt lat="47.76469" lon="7.03342">
        <ele>454</ele>
        <time>2016-08-13T07:46:57Z</time>
      </trkpt>
      <trkpt lat="47.76482" lon="7.03344">
        <ele>457</ele>
        <time>2016-08-13T07:47:06Z</time>
      </trkpt>
      <trkpt lat="47.76482" lon="7.03344">
        <ele>457</ele>
        <time>2016-08-13T07:47:14Z</time>
      </trkpt>
      <trkpt lat="47.76482" lon="7.03344">
        <ele>457</ele>
        <time>2016-08-13T07:47:15Z</time>
      </trkpt>
      <trkpt lat="47.76486" lon="7.03364">
        <ele>455</ele>
        <time>2016-08-13T07:49:09Z</time>
      </trkpt>
      <trkpt lat="47.7648" lon="7.03383">
        <ele>453</ele>
        <time>2016-08-13T07:49:24Z</time>
      </trkpt>
      <trkpt lat="47.76469" lon="7.03404">
        <ele>451</ele>
        <time>2016-08-13T07:49:45Z</time>
      </trkpt>
      <trkpt lat="47.76473" lon="7.03436">
        <ele>450</ele>
        <time>2016-08-13T07:50:04Z</time>
      </trkpt>
      <trkpt lat="47.76472" lon="7.03456">
        <ele>452</ele>
        <time>2016-08-13T07:50:16Z</time>
      </trkpt>
      <trkpt lat="47.76468" lon="7.03477">
        <ele>449</ele>
        <time>2016-08-13T07:50:27Z</time>
      </trkpt>
      <trkpt lat="47.76463" lon="7.03497">
        <ele>450</ele>
        <time>2016-08-13T07:50:39Z</time>
      </trkpt>
      <trkpt lat="47.76461" lon="7.03511">
        <ele>452</ele>
        <time>2016-08-13T07:50:51Z</time>
      </trkpt>
      <trkpt lat="47.76447" lon="7.03542">
        <ele>447</ele>
        <time>2016-08-13T07:51:12Z</time>
      </trkpt>
      <trkpt lat="47.76443" lon="7.03563">
        <ele>448</ele>
        <time>2016-08-13T07:51:30Z</time>
      </trkpt>
      <trkpt lat="47.76443" lon="7.03563">
        <ele>448</ele>
        <time>2016-08-13T07:51:38Z</time>
      </trkpt>
      <trkpt lat="47.76441" lon="7.03581">
        <ele>450</ele>
        <time>2016-08-13T07:51:48Z</time>
      </trkpt>
      <trkpt lat="47.76435" lon="7.0361">
        <ele>454</ele>
        <time>2016-08-13T07:52:10Z</time>
      </trkpt>
      <trkpt lat="47.76427" lon="7.03631">
        <ele>454</ele>
        <time>2016-08-13T07:52:21Z</time>
      </trkpt>
      <trkpt lat="47.76427" lon="7.03638">
        <ele>455</ele>
        <time>2016-08-13T07:52:25Z</time>
      </trkpt>
      <trkpt lat="47.76423" lon="7.0365">
        <ele>459</ele>
        <time>2016-08-13T07:52:38Z</time>
      </trkpt>
      <trkpt lat="47.76413" lon="7.03676">
        <ele>454</ele>
        <time>2016-08-13T07:52:55Z</time>
      </trkpt>
      <trkpt lat="47.76426" lon="7.03705">
        <ele>454</ele>
        <time>2016-08-13T07:53:16Z</time>
      </trkpt>
      <trkpt lat="47.76433" lon="7.03725">
        <ele>441</ele>
        <time>2016-08-13T07:53:27Z</time>
      </trkpt>
      <trkpt lat="47.76441" lon="7.03756">
        <ele>445</ele>
        <time>2016-08-13T07:53:43Z</time>
      </trkpt>
      <trkpt lat="47.76434" lon="7.03772">
        <ele>440</ele>
        <time>2016-08-13T07:53:53Z</time>
      </trkpt>
      <trkpt lat="47.76424" lon="7.03788">
        <ele>448</ele>
        <time>2016-08-13T07:54:12Z</time>
      </trkpt>
      <trkpt lat="47.76409" lon="7.03795">
        <ele>451</ele>
        <time>2016-08-13T07:54:23Z</time>
      </trkpt>
      <trkpt lat="47.76398" lon="7.03811">
        <ele>450</ele>
        <time>2016-08-13T07:54:35Z</time>
      </trkpt>
      <trkpt lat="47.76401" lon="7.03834">
        <ele>450</ele>
        <time>2016-08-13T07:54:47Z</time>
      </trkpt>
      <trkpt lat="47.76411" lon="7.03842">
        <ele>451</ele>
        <time>2016-08-13T07:54:57Z</time>
      </trkpt>
      <trkpt lat="47.76425" lon="7.03842">
        <ele>454</ele>
        <time>2016-08-13T07:55:13Z</time>
      </trkpt>
      <trkpt lat="47.76442" lon="7.03844">
        <ele>454</ele>
        <time>2016-08-13T07:55:30Z</time>
      </trkpt>
      <trkpt lat="47.76445" lon="7.03851">
        <ele>452</ele>
        <time>2016-08-13T07:55:36Z</time>
      </trkpt>
      <trkpt lat="47.76439" lon="7.03861">
        <ele>449</ele>
        <time>2016-08-13T07:55:49Z</time>
      </trkpt>
      <trkpt lat="47.76439" lon="7.03861">
        <ele>449</ele>
        <time>2016-08-13T07:55:56Z</time>
      </trkpt>
      <trkpt lat="47.76421" lon="7.03873">
        <ele>447</ele>
        <time>2016-08-13T07:56:10Z</time>
      </trkpt>
      <trkpt lat="47.76404" lon="7.03904">
        <ele>442</ele>
        <time>2016-08-13T07:56:30Z</time>
      </trkpt>
      <trkpt lat="47.76399" lon="7.03908">
        <ele>438</ele>
        <time>2016-08-13T07:56:33Z</time>
      </trkpt>
      <trkpt lat="47.76396" lon="7.03923">
        <ele>437</ele>
        <time>2016-08-13T07:56:47Z</time>
      </trkpt>
      <trkpt lat="47.76386" lon="7.0394">
        <ele>434</ele>
        <time>2016-08-13T07:57:02Z</time>
      </trkpt>
      <trkpt lat="47.76386" lon="7.03941">
        <ele>432</ele>
        <time>2016-08-13T07:57:10Z</time>
      </trkpt>
      <trkpt lat="47.76383" lon="7.03962">
        <ele>425</ele>
        <time>2016-08-13T07:57:27Z</time>
      </trkpt>
      <trkpt lat="47.76381" lon="7.04001">
        <ele>420</ele>
        <time>2016-08-13T07:57:42Z</time>
      </trkpt>
      <trkpt lat="47.76376" lon="7.04031">
        <ele>425</ele>
        <time>2016-08-13T07:57:51Z</time>
      </trkpt>
      <trkpt lat="47.76367" lon="7.04043">
        <ele>426</ele>
        <time>2016-08-13T07:58:06Z</time>
      </trkpt>
      <trkpt lat="47.76367" lon="7.04043">
        <ele>426</ele>
        <time>2016-08-13T07:58:13Z</time>
      </trkpt>
      <trkpt lat="47.76367" lon="7.04043">
        <ele>426</ele>
        <time>2016-08-13T07:58:14Z</time>
      </trkpt>
      <trkpt lat="47.76354" lon="7.04052">
        <ele>433</ele>
        <time>2016-08-13T07:58:27Z</time>
      </trkpt>
      <trkpt lat="47.76334" lon="7.04061">
        <ele>435</ele>
        <time>2016-08-13T07:58:44Z</time>
      </trkpt>
      <trkpt lat="47.76313" lon="7.04074">
        <ele>439</ele>
        <time>2016-08-13T07:58:55Z</time>
      </trkpt>
      <trkpt lat="47.76304" lon="7.04084">
        <ele>435</ele>
        <time>2016-08-13T07:59:00Z</time>
      </trkpt>
      <trkpt lat="47.76304" lon="7.04098">
        <ele>423</ele>
        <time>2016-08-13T07:59:09Z</time>
      </trkpt>
      <trkpt lat="47.76297" lon="7.04115">
        <ele>421</ele>
        <time>2016-08-13T07:59:20Z</time>
      </trkpt>
      <trkpt lat="47.76292" lon="7.04131">
        <ele>421</ele>
        <time>2016-08-13T07:59:30Z</time>
      </trkpt>
      <trkpt lat="47.76283" lon="7.04141">
        <ele>422</ele>
        <time>2016-08-13T07:59:39Z</time>
      </trkpt>
      <trkpt lat="47.76258" lon="7.04149">
        <ele>422</ele>
        <time>2016-08-13T07:59:53Z</time>
      </trkpt>
      <trkpt lat="47.76247" lon="7.04153">
        <ele>421</ele>
        <time>2016-08-13T07:59:56Z</time>
      </trkpt>
      <trkpt lat="47.76238" lon="7.04161">
        <ele>420</ele>
        <time>2016-08-13T08:00:07Z</time>
      </trkpt>
      <trkpt lat="47.76223" lon="7.04169">
        <ele>423</ele>
        <time>2016-08-13T08:00:19Z</time>
      </trkpt>
      <trkpt lat="47.76218" lon="7.04181">
        <ele>422</ele>
        <time>2016-08-13T08:00:27Z</time>
      </trkpt>
      <trkpt lat="47.76203" lon="7.04204">
        <ele>415</ele>
        <time>2016-08-13T08:00:45Z</time>
      </trkpt>
      <trkpt lat="47.76186" lon="7.04216">
        <ele>413</ele>
        <time>2016-08-13T08:00:59Z</time>
      </trkpt>
      <trkpt lat="47.76167" lon="7.04221">
        <ele>421</ele>
        <time>2016-08-13T08:01:15Z</time>
      </trkpt>
      <trkpt lat="47.76151" lon="7.04234">
        <ele>419</ele>
        <time>2016-08-13T08:01:28Z</time>
      </trkpt>
      <trkpt lat="47.76144" lon="7.04256">
        <ele>419</ele>
        <time>2016-08-13T08:01:43Z</time>
      </trkpt>
      <trkpt lat="47.76131" lon="7.04276">
        <ele>418</ele>
        <time>2016-08-13T08:01:55Z</time>
      </trkpt>
      <trkpt lat="47.76123" lon="7.04284">
        <ele>419</ele>
        <time>2016-08-13T08:02:02Z</time>
      </trkpt>
      <trkpt lat="47.76115" lon="7.04296">
        <ele>418</ele>
        <time>2016-08-13T08:02:08Z</time>
      </trkpt>
      <trkpt lat="47.76112" lon="7.04306">
        <ele>418</ele>
        <time>2016-08-13T08:02:17Z</time>
      </trkpt>
      <trkpt lat="47.76104" lon="7.04314">
        <ele>416</ele>
        <time>2016-08-13T08:02:22Z</time>
      </trkpt>
      <trkpt lat="47.76104" lon="7.04331">
        <ele>416</ele>
        <time>2016-08-13T08:02:30Z</time>
      </trkpt>
      <trkpt lat="47.76097" lon="7.04351">
        <ele>415</ele>
        <time>2016-08-13T08:02:42Z</time>
      </trkpt>
      <trkpt lat="47.76086" lon="7.04382">
        <ele>416</ele>
        <time>2016-08-13T08:02:59Z</time>
      </trkpt>
      <trkpt lat="47.7608" lon="7.04406">
        <ele>414</ele>
        <time>2016-08-13T08:03:13Z</time>
      </trkpt>
      <trkpt lat="47.7608" lon="7.04435">
        <ele>413</ele>
        <time>2016-08-13T08:03:27Z</time>
      </trkpt>
      <trkpt lat="47.76074" lon="7.04452">
        <ele>416</ele>
        <time>2016-08-13T08:03:37Z</time>
      </trkpt>
      <trkpt lat="47.76073" lon="7.04473">
        <ele>416</ele>
        <time>2016-08-13T08:03:49Z</time>
      </trkpt>
      <trkpt lat="47.76068" lon="7.04503">
        <ele>415</ele>
        <time>2016-08-13T08:04:04Z</time>
      </trkpt>
      <trkpt lat="47.76065" lon="7.04524">
        <ele>414</ele>
        <time>2016-08-13T08:04:16Z</time>
      </trkpt>
      <trkpt lat="47.76064" lon="7.04551">
        <ele>412</ele>
        <time>2016-08-13T08:04:33Z</time>
      </trkpt>
      <trkpt lat="47.76061" lon="7.04589">
        <ele>414</ele>
        <time>2016-08-13T08:04:50Z</time>
      </trkpt>
      <trkpt lat="47.76054" lon="7.0462">
        <ele>414</ele>
        <time>2016-08-13T08:05:07Z</time>
      </trkpt>
      <trkpt lat="47.76049" lon="7.04626">
        <ele>414</ele>
        <time>2016-08-13T08:05:09Z</time>
      </trkpt>
      <trkpt lat="47.76051" lon="7.0464">
        <ele>414</ele>
        <time>2016-08-13T08:05:18Z</time>
      </trkpt>
      <trkpt lat="47.76054" lon="7.04664">
        <ele>413</ele>
        <time>2016-08-13T08:05:31Z</time>
      </trkpt>
      <trkpt lat="47.76055" lon="7.0469">
        <ele>413</ele>
        <time>2016-08-13T08:05:45Z</time>
      </trkpt>
      <trkpt lat="47.76052" lon="7.04716">
        <ele>413</ele>
        <time>2016-08-13T08:05:59Z</time>
      </trkpt>
      <trkpt lat="47.76049" lon="7.04745">
        <ele>416</ele>
        <time>2016-08-13T08:06:13Z</time>
      </trkpt>
      <trkpt lat="47.76043" lon="7.04771">
        <ele>417</ele>
        <time>2016-08-13T08:06:30Z</time>
      </trkpt>
      <trkpt lat="47.76039" lon="7.04797">
        <ele>413</ele>
        <time>2016-08-13T08:06:47Z</time>
      </trkpt>
      <trkpt lat="47.76036" lon="7.04817">
        <ele>413</ele>
        <time>2016-08-13T08:06:58Z</time>
      </trkpt>
      <trkpt lat="47.76037" lon="7.04844">
        <ele>412</ele>
        <time>2016-08-13T08:07:15Z</time>
      </trkpt>
      <trkpt lat="47.76039" lon="7.04873">
        <ele>412</ele>
        <time>2016-08-13T08:07:30Z</time>
      </trkpt>
      <trkpt lat="47.76037" lon="7.04895">
        <ele>411</ele>
        <time>2016-08-13T08:07:42Z</time>
      </trkpt>
      <trkpt lat="47.76036" lon="7.04923">
        <ele>410</ele>
        <time>2016-08-13T08:07:58Z</time>
      </trkpt>
      <trkpt lat="47.76034" lon="7.04951">
        <ele>410</ele>
        <time>2016-08-13T08:08:15Z</time>
      </trkpt>
      <trkpt lat="47.7603" lon="7.04969">
        <ele>412</ele>
        <time>2016-08-13T08:08:25Z</time>
      </trkpt>
      <trkpt lat="47.76032" lon="7.04996">
        <ele>412</ele>
        <time>2016-08-13T08:08:44Z</time>
      </trkpt>
      <trkpt lat="47.76047" lon="7.04996">
        <ele>415</ele>
        <time>2016-08-13T08:09:00Z</time>
      </trkpt>
      <trkpt lat="47.76053" lon="7.04956">
        <ele>429</ele>
        <time>2016-08-13T08:10:46Z</time>
      </trkpt>
      <trkpt lat="47.76059" lon="7.04941">
        <ele>425</ele>
        <time>2016-08-13T08:10:53Z</time>
      </trkpt>
      <trkpt lat="47.76059" lon="7.04941">
        <ele>425</ele>
        <time>2016-08-13T08:10:58Z</time>
      </trkpt>
      <trkpt lat="47.76059" lon="7.04941">
        <ele>425</ele>
        <time>2016-08-13T08:10:59Z</time>
      </trkpt>
      <trkpt lat="47.76064" lon="7.04917">
        <ele>427</ele>
        <time>2016-08-13T08:11:12Z</time>
      </trkpt>
      <trkpt lat="47.76071" lon="7.0491">
        <ele>427</ele>
        <time>2016-08-13T08:11:22Z</time>
      </trkpt>
      <trkpt lat="47.76071" lon="7.0491">
        <ele>427</ele>
        <time>2016-08-13T08:11:29Z</time>
      </trkpt>
      <trkpt lat="47.76071" lon="7.0491">
        <ele>427</ele>
        <time>2016-08-13T08:11:30Z</time>
      </trkpt>
      <trkpt lat="47.76074" lon="7.0489">
        <ele>427</ele>
        <time>2016-08-13T08:11:40Z</time>
      </trkpt>
      <trkpt lat="47.76074" lon="7.04882">
        <ele>426</ele>
        <time>2016-08-13T08:11:43Z</time>
      </trkpt>
      <trkpt lat="47.76081" lon="7.04875">
        <ele>421</ele>
        <time>2016-08-13T08:11:55Z</time>
      </trkpt>
      <trkpt lat="47.76084" lon="7.04852">
        <ele>424</ele>
        <time>2016-08-13T08:12:12Z</time>
      </trkpt>
      <trkpt lat="47.76092" lon="7.04827">
        <ele>427</ele>
        <time>2016-08-13T08:12:27Z</time>
      </trkpt>
      <trkpt lat="47.76086" lon="7.04814">
        <ele>428</ele>
        <time>2016-08-13T08:12:39Z</time>
      </trkpt>
      <trkpt lat="47.76094" lon="7.04793">
        <ele>428</ele>
        <time>2016-08-13T08:12:48Z</time>
      </trkpt>
      <trkpt lat="47.761" lon="7.04778">
        <ele>435</ele>
        <time>2016-08-13T08:12:58Z</time>
      </trkpt>
      <trkpt lat="47.76104" lon="7.04766">
        <ele>435</ele>
        <time>2016-08-13T08:13:11Z</time>
      </trkpt>
      <trkpt lat="47.76099" lon="7.0474">
        <ele>428</ele>
        <time>2016-08-13T08:13:30Z</time>
      </trkpt>
      <trkpt lat="47.76115" lon="7.04727">
        <ele>430</ele>
        <time>2016-08-13T08:13:36Z</time>
      </trkpt>
      <trkpt lat="47.76106" lon="7.04725">
        <ele>429</ele>
        <time>2016-08-13T08:13:44Z</time>
      </trkpt>
      <trkpt lat="47.7611" lon="7.04686">
        <ele>432</ele>
        <time>2016-08-13T08:14:13Z</time>
      </trkpt>
      <trkpt lat="47.76115" lon="7.04669">
        <ele>432</ele>
        <time>2016-08-13T08:14:23Z</time>
      </trkpt>
      <trkpt lat="47.7612" lon="7.04646">
        <ele>436</ele>
        <time>2016-08-13T08:14:36Z</time>
      </trkpt>
      <trkpt lat="47.76116" lon="7.0462">
        <ele>442</ele>
        <time>2016-08-13T08:14:52Z</time>
      </trkpt>
      <trkpt lat="47.76121" lon="7.04597">
        <ele>444</ele>
        <time>2016-08-13T08:15:06Z</time>
      </trkpt>
      <trkpt lat="47.7614" lon="7.04564">
        <ele>444</ele>
        <time>2016-08-13T08:15:14Z</time>
      </trkpt>
      <trkpt lat="47.76127" lon="7.04567">
        <ele>442</ele>
        <time>2016-08-13T08:15:22Z</time>
      </trkpt>
      <trkpt lat="47.76124" lon="7.04537">
        <ele>440</ele>
        <time>2016-08-13T08:16:31Z</time>
      </trkpt>
      <trkpt lat="47.76131" lon="7.04526">
        <ele>441</ele>
        <time>2016-08-13T08:16:35Z</time>
      </trkpt>
      <trkpt lat="47.76133" lon="7.04514">
        <ele>443</ele>
        <time>2016-08-13T08:16:46Z</time>
      </trkpt>
      <trkpt lat="47.76146" lon="7.04488">
        <ele>449</ele>
        <time>2016-08-13T08:17:05Z</time>
      </trkpt>
      <trkpt lat="47.76146" lon="7.04488">
        <ele>449</ele>
        <time>2016-08-13T08:17:12Z</time>
      </trkpt>
      <trkpt lat="47.76146" lon="7.04488">
        <ele>449</ele>
        <time>2016-08-13T08:17:13Z</time>
      </trkpt>
      <trkpt lat="47.76151" lon="7.04465">
        <ele>453</ele>
        <time>2016-08-13T08:17:32Z</time>
      </trkpt>
      <trkpt lat="47.7616" lon="7.04423">
        <ele>465</ele>
        <time>2016-08-13T08:18:20Z</time>
      </trkpt>
      <trkpt lat="47.76186" lon="7.04419">
        <ele>467</ele>
        <time>2016-08-13T08:18:39Z</time>
      </trkpt>
      <trkpt lat="47.76191" lon="7.04422">
        <ele>470</ele>
        <time>2016-08-13T08:18:43Z</time>
      </trkpt>
      <trkpt lat="47.76187" lon="7.04428">
        <ele>465</ele>
        <time>2016-08-13T08:18:52Z</time>
      </trkpt>
      <trkpt lat="47.76201" lon="7.04448">
        <ele>458</ele>
        <time>2016-08-13T08:19:58Z</time>
      </trkpt>
      <trkpt lat="47.76205" lon="7.04452">
        <ele>457</ele>
        <time>2016-08-13T08:20:04Z</time>
      </trkpt>
      <trkpt lat="47.76214" lon="7.04461">
        <ele>461</ele>
        <time>2016-08-13T08:20:15Z</time>
      </trkpt>
      <trkpt lat="47.76225" lon="7.04474">
        <ele>464</ele>
        <time>2016-08-13T08:20:27Z</time>
      </trkpt>
      <trkpt lat="47.76241" lon="7.04491">
        <ele>471</ele>
        <time>2016-08-13T08:20:42Z</time>
      </trkpt>
      <trkpt lat="47.76247" lon="7.04496">
        <ele>476</ele>
        <time>2016-08-13T08:20:49Z</time>
      </trkpt>
      <trkpt lat="47.76262" lon="7.04514">
        <ele>481</ele>
        <time>2016-08-13T08:21:08Z</time>
      </trkpt>
      <trkpt lat="47.76262" lon="7.04514">
        <ele>481</ele>
        <time>2016-08-13T08:21:16Z</time>
      </trkpt>
      <trkpt lat="47.76262" lon="7.04514">
        <ele>481</ele>
        <time>2016-08-13T08:21:17Z</time>
      </trkpt>
      <trkpt lat="47.76276" lon="7.04526">
        <ele>477</ele>
        <time>2016-08-13T08:21:54Z</time>
      </trkpt>
      <trkpt lat="47.76287" lon="7.04538">
        <ele>479</ele>
        <time>2016-08-13T08:22:00Z</time>
      </trkpt>
      <trkpt lat="47.76302" lon="7.04543">
        <ele>479</ele>
        <time>2016-08-13T08:22:11Z</time>
      </trkpt>
      <trkpt lat="47.76317" lon="7.04557">
        <ele>479</ele>
        <time>2016-08-13T08:22:24Z</time>
      </trkpt>
      <trkpt lat="47.76327" lon="7.04566">
        <ele>484</ele>
        <time>2016-08-13T08:22:31Z</time>
      </trkpt>
      <trkpt lat="47.7633" lon="7.04572">
        <ele>478</ele>
        <time>2016-08-13T08:22:40Z</time>
      </trkpt>
      <trkpt lat="47.76344" lon="7.04585">
        <ele>486</ele>
        <time>2016-08-13T08:22:55Z</time>
      </trkpt>
      <trkpt lat="47.76355" lon="7.04591">
        <ele>485</ele>
        <time>2016-08-13T08:23:02Z</time>
      </trkpt>
      <trkpt lat="47.76353" lon="7.04595">
        <ele>483</ele>
        <time>2016-08-13T08:23:11Z</time>
      </trkpt>
      <trkpt lat="47.76355" lon="7.04616">
        <ele>482</ele>
        <time>2016-08-13T08:23:32Z</time>
      </trkpt>
      <trkpt lat="47.76365" lon="7.04636">
        <ele>487</ele>
        <time>2016-08-13T08:23:46Z</time>
      </trkpt>
      <trkpt lat="47.76376" lon="7.04664">
        <ele>485</ele>
        <time>2016-08-13T08:24:01Z</time>
      </trkpt>
      <trkpt lat="47.76379" lon="7.04669">
        <ele>483</ele>
        <time>2016-08-13T08:24:06Z</time>
      </trkpt>
      <trkpt lat="47.76383" lon="7.04682">
        <ele>481</ele>
        <time>2016-08-13T08:24:21Z</time>
      </trkpt>
      <trkpt lat="47.76395" lon="7.04701">
        <ele>489</ele>
        <time>2016-08-13T08:24:31Z</time>
      </trkpt>
      <trkpt lat="47.76392" lon="7.04717">
        <ele>494</ele>
        <time>2016-08-13T08:24:45Z</time>
      </trkpt>
      <trkpt lat="47.76391" lon="7.04727">
        <ele>495</ele>
        <time>2016-08-13T08:24:50Z</time>
      </trkpt>
      <trkpt lat="47.76394" lon="7.04741">
        <ele>493</ele>
        <time>2016-08-13T08:25:05Z</time>
      </trkpt>
      <trkpt lat="47.76404" lon="7.04769">
        <ele>491</ele>
        <time>2016-08-13T08:25:23Z</time>
      </trkpt>
      <trkpt lat="47.76395" lon="7.04788">
        <ele>491</ele>
        <time>2016-08-13T08:25:36Z</time>
      </trkpt>
      <trkpt lat="47.76387" lon="7.04814">
        <ele>489</ele>
        <time>2016-08-13T08:25:55Z</time>
      </trkpt>
      <trkpt lat="47.76382" lon="7.04841">
        <ele>489</ele>
        <time>2016-08-13T08:26:07Z</time>
      </trkpt>
      <trkpt lat="47.76375" lon="7.04862">
        <ele>488</ele>
        <time>2016-08-13T08:26:23Z</time>
      </trkpt>
      <trkpt lat="47.76373" lon="7.04882">
        <ele>486</ele>
        <time>2016-08-13T08:26:41Z</time>
      </trkpt>
      <trkpt lat="47.76354" lon="7.04906">
        <ele>488</ele>
        <time>2016-08-13T08:27:01Z</time>
      </trkpt>
      <trkpt lat="47.76345" lon="7.04932">
        <ele>484</ele>
        <time>2016-08-13T08:27:16Z</time>
      </trkpt>
      <trkpt lat="47.76345" lon="7.04956">
        <ele>483</ele>
        <time>2016-08-13T08:27:30Z</time>
      </trkpt>
      <trkpt lat="47.76345" lon="7.04956">
        <ele>483</ele>
        <time>2016-08-13T08:27:37Z</time>
      </trkpt>
      <trkpt lat="47.76345" lon="7.04956">
        <ele>483</ele>
        <time>2016-08-13T08:27:38Z</time>
      </trkpt>
      <trkpt lat="47.76338" lon="7.04975">
        <ele>479</ele>
        <time>2016-08-13T08:27:46Z</time>
      </trkpt>
      <trkpt lat="47.7633" lon="7.04984">
        <ele>478</ele>
        <time>2016-08-13T08:27:54Z</time>
      </trkpt>
      <trkpt lat="47.76327" lon="7.04997">
        <ele>477</ele>
        <time>2016-08-13T08:28:07Z</time>
      </trkpt>
      <trkpt lat="47.7632" lon="7.05025">
        <ele>481</ele>
        <time>2016-08-13T08:28:23Z</time>
      </trkpt>
      <trkpt lat="47.76304" lon="7.05043">
        <ele>482</ele>
        <time>2016-08-13T08:28:36Z</time>
      </trkpt>
      <trkpt lat="47.76293" lon="7.05053">
        <ele>483</ele>
        <time>2016-08-13T08:28:48Z</time>
      </trkpt>
      <trkpt lat="47.7628" lon="7.05066">
        <ele>481</ele>
        <time>2016-08-13T08:29:02Z</time>
      </trkpt>
      <trkpt lat="47.7628" lon="7.051">
        <ele>483</ele>
        <time>2016-08-13T08:29:19Z</time>
      </trkpt>
      <trkpt lat="47.76276" lon="7.05121">
        <ele>486</ele>
        <time>2016-08-13T08:29:29Z</time>
      </trkpt>
      <trkpt lat="47.76276" lon="7.05121">
        <ele>486</ele>
        <time>2016-08-13T08:29:35Z</time>
      </trkpt>
      <trkpt lat="47.76276" lon="7.05129">
        <ele>485</ele>
        <time>2016-08-13T08:29:36Z</time>
      </trkpt>
      <trkpt lat="47.76281" lon="7.05148">
        <ele>482</ele>
        <time>2016-08-13T08:29:48Z</time>
      </trkpt>
      <trkpt lat="47.7629" lon="7.05156">
        <ele>483</ele>
        <time>2016-08-13T08:29:55Z</time>
      </trkpt>
      <trkpt lat="47.76296" lon="7.05189">
        <ele>479</ele>
        <time>2016-08-13T08:30:17Z</time>
      </trkpt>
      <trkpt lat="47.76286" lon="7.05208">
        <ele>478</ele>
        <time>2016-08-13T08:30:29Z</time>
      </trkpt>
      <trkpt lat="47.76296" lon="7.05234">
        <ele>475</ele>
        <time>2016-08-13T08:30:44Z</time>
      </trkpt>
      <trkpt lat="47.76309" lon="7.05239">
        <ele>470</ele>
        <time>2016-08-13T08:30:57Z</time>
      </trkpt>
      <trkpt lat="47.76323" lon="7.05241">
        <ele>468</ele>
        <time>2016-08-13T08:31:13Z</time>
      </trkpt>
      <trkpt lat="47.76339" lon="7.05251">
        <ele>472</ele>
        <time>2016-08-13T08:31:26Z</time>
      </trkpt>
      <trkpt lat="47.76342" lon="7.05255">
        <ele>472</ele>
        <time>2016-08-13T08:31:30Z</time>
      </trkpt>
      <trkpt lat="47.76343" lon="7.05262">
        <ele>471</ele>
        <time>2016-08-13T08:31:39Z</time>
      </trkpt>
      <trkpt lat="47.76322" lon="7.05293">
        <ele>467</ele>
        <time>2016-08-13T08:32:24Z</time>
      </trkpt>
      <trkpt lat="47.76321" lon="7.05313">
        <ele>469</ele>
        <time>2016-08-13T08:32:30Z</time>
      </trkpt>
      <trkpt lat="47.7632" lon="7.05326">
        <ele>472</ele>
        <time>2016-08-13T08:32:37Z</time>
      </trkpt>
      <trkpt lat="47.7631" lon="7.05335">
        <ele>472</ele>
        <time>2016-08-13T08:32:43Z</time>
      </trkpt>
      <trkpt lat="47.76309" lon="7.05344">
        <ele>469</ele>
        <time>2016-08-13T08:32:55Z</time>
      </trkpt>
      <trkpt lat="47.76311" lon="7.05366">
        <ele>464</ele>
        <time>2016-08-13T08:33:07Z</time>
      </trkpt>
      <trkpt lat="47.76299" lon="7.05383">
        <ele>462</ele>
        <time>2016-08-13T08:33:20Z</time>
      </trkpt>
      <trkpt lat="47.76293" lon="7.05392">
        <ele>456</ele>
        <time>2016-08-13T08:33:30Z</time>
      </trkpt>
      <trkpt lat="47.76262" lon="7.05403">
        <ele>452</ele>
        <time>2016-08-13T08:34:40Z</time>
      </trkpt>
      <trkpt lat="47.76237" lon="7.0543">
        <ele>449</ele>
        <time>2016-08-13T08:34:52Z</time>
      </trkpt>
      <trkpt lat="47.76219" lon="7.05441">
        <ele>450</ele>
        <time>2016-08-13T08:35:04Z</time>
      </trkpt>
      <trkpt lat="47.76198" lon="7.05449">
        <ele>452</ele>
        <time>2016-08-13T08:35:09Z</time>
      </trkpt>
      <trkpt lat="47.76197" lon="7.05458">
        <ele>451</ele>
        <time>2016-08-13T08:35:18Z</time>
      </trkpt>
      <trkpt lat="47.76186" lon="7.0546">
        <ele>452</ele>
        <time>2016-08-13T08:35:24Z</time>
      </trkpt>
      <trkpt lat="47.76178" lon="7.05465">
        <ele>449</ele>
        <time>2016-08-13T08:35:33Z</time>
      </trkpt>
      <trkpt lat="47.76178" lon="7.05465">
        <ele>449</ele>
        <time>2016-08-13T08:35:39Z</time>
      </trkpt>
      <trkpt lat="47.76178" lon="7.05465">
        <ele>449</ele>
        <time>2016-08-13T08:35:40Z</time>
      </trkpt>
      <trkpt lat="47.7616" lon="7.05473">
        <ele>441</ele>
        <time>2016-08-13T08:36:00Z</time>
      </trkpt>
      <trkpt lat="47.76137" lon="7.05473">
        <ele>438</ele>
        <time>2016-08-13T08:36:14Z</time>
      </trkpt>
      <trkpt lat="47.76123" lon="7.05497">
        <ele>434</ele>
        <time>2016-08-13T08:36:32Z</time>
      </trkpt>
      <trkpt lat="47.76103" lon="7.05514">
        <ele>433</ele>
        <time>2016-08-13T08:36:46Z</time>
      </trkpt>
      <trkpt lat="47.76099" lon="7.0552">
        <ele>431</ele>
        <time>2016-08-13T08:36:53Z</time>
      </trkpt>
      <trkpt lat="47.76092" lon="7.05516">
        <ele>427</ele>
        <time>2016-08-13T08:37:05Z</time>
      </trkpt>
      <trkpt lat="47.7607" lon="7.05508">
        <ele>430</ele>
        <time>2016-08-13T08:37:22Z</time>
      </trkpt>
      <trkpt lat="47.76054" lon="7.055">
        <ele>428</ele>
        <time>2016-08-13T08:37:33Z</time>
      </trkpt>
      <trkpt lat="47.76036" lon="7.0549">
        <ele>426</ele>
        <time>2016-08-13T08:37:48Z</time>
      </trkpt>
      <trkpt lat="47.76026" lon="7.0549">
        <ele>422</ele>
        <time>2016-08-13T08:37:59Z</time>
      </trkpt>
      <trkpt lat="47.76018" lon="7.05487">
        <ele>421</ele>
        <time>2016-08-13T08:38:09Z</time>
      </trkpt>
      <trkpt lat="47.76018" lon="7.05487">
        <ele>421</ele>
        <time>2016-08-13T08:38:14Z</time>
      </trkpt>
      <trkpt lat="47.7601" lon="7.05487">
        <ele>417</ele>
        <time>2016-08-13T08:38:20Z</time>
      </trkpt>
      <trkpt lat="47.7601" lon="7.05487">
        <ele>417</ele>
        <time>2016-08-13T08:38:27Z</time>
      </trkpt>
      <trkpt lat="47.7601" lon="7.05487">
        <ele>417</ele>
        <time>2016-08-13T08:38:28Z</time>
      </trkpt>
      <trkpt lat="47.76008" lon="7.05507">
        <ele>412</ele>
        <time>2016-08-13T08:38:41Z</time>
      </trkpt>
      <trkpt lat="47.76004" lon="7.05533">
        <ele>414</ele>
        <time>2016-08-13T08:38:51Z</time>
      </trkpt>
      <trkpt lat="47.75996" lon="7.05554">
        <ele>414</ele>
        <time>2016-08-13T08:39:01Z</time>
      </trkpt>
      <trkpt lat="47.7599" lon="7.05577">
        <ele>419</ele>
        <time>2016-08-13T08:39:13Z</time>
      </trkpt>
      <trkpt lat="47.75989" lon="7.05582">
        <ele>420</ele>
        <time>2016-08-13T08:39:21Z</time>
      </trkpt>
      <trkpt lat="47.75984" lon="7.05615">
        <ele>414</ele>
        <time>2016-08-13T08:39:50Z</time>
      </trkpt>
      <trkpt lat="47.75982" lon="7.05625">
        <ele>416</ele>
        <time>2016-08-13T08:39:57Z</time>
      </trkpt>
      <trkpt lat="47.75982" lon="7.05625">
        <ele>416</ele>
        <time>2016-08-13T08:40:04Z</time>
      </trkpt>
      <trkpt lat="47.75981" lon="7.05628">
        <ele>418</ele>
        <time>2016-08-13T08:40:05Z</time>
      </trkpt>
      <trkpt lat="47.75975" lon="7.05651">
        <ele>415</ele>
        <time>2016-08-13T08:40:56Z</time>
      </trkpt>
      <trkpt lat="47.75968" lon="7.05673">
        <ele>413</ele>
        <time>2016-08-13T08:41:11Z</time>
      </trkpt>
      <trkpt lat="47.75966" lon="7.057">
        <ele>408</ele>
        <time>2016-08-13T08:41:31Z</time>
      </trkpt>
      <trkpt lat="47.75968" lon="7.05724">
        <ele>409</ele>
        <time>2016-08-13T08:41:44Z</time>
      </trkpt>
      <trkpt lat="47.75971" lon="7.05747">
        <ele>402</ele>
        <time>2016-08-13T08:42:01Z</time>
      </trkpt>
      <trkpt lat="47.75965" lon="7.05763">
        <ele>407</ele>
        <time>2016-08-13T08:42:10Z</time>
      </trkpt>
      <trkpt lat="47.75958" lon="7.05779">
        <ele>405</ele>
        <time>2016-08-13T08:42:18Z</time>
      </trkpt>
      <trkpt lat="47.75958" lon="7.05809">
        <ele>408</ele>
        <time>2016-08-13T08:42:33Z</time>
      </trkpt>
      <trkpt lat="47.75961" lon="7.0583">
        <ele>407</ele>
        <time>2016-08-13T08:42:44Z</time>
      </trkpt>
      <trkpt lat="47.75953" lon="7.05849">
        <ele>409</ele>
        <time>2016-08-13T08:42:58Z</time>
      </trkpt>
      <trkpt lat="47.75947" lon="7.05863">
        <ele>410</ele>
        <time>2016-08-13T08:43:06Z</time>
      </trkpt>
      <trkpt lat="47.75943" lon="7.0589">
        <ele>403</ele>
        <time>2016-08-13T08:43:25Z</time>
      </trkpt>
      <trkpt lat="47.75938" lon="7.05934">
        <ele>405</ele>
        <time>2016-08-13T08:43:59Z</time>
      </trkpt>
      <trkpt lat="47.75935" lon="7.05957">
        <ele>403</ele>
        <time>2016-08-13T08:44:15Z</time>
      </trkpt>
      <trkpt lat="47.75933" lon="7.05977">
        <ele>398</ele>
        <time>2016-08-13T08:44:27Z</time>
      </trkpt>
      <trkpt lat="47.75931" lon="7.06005">
        <ele>396</ele>
        <time>2016-08-13T08:44:39Z</time>
      </trkpt>
      <trkpt lat="47.75929" lon="7.06014">
        <ele>397</ele>
        <time>2016-08-13T08:44:43Z</time>
      </trkpt>
      <trkpt lat="47.75928" lon="7.06017">
        <ele>396</ele>
        <time>2016-08-13T08:44:52Z</time>
      </trkpt>
      <trkpt lat="47.75922" lon="7.06044">
        <ele>397</ele>
        <time>2016-08-13T08:45:11Z</time>
      </trkpt>
      <trkpt lat="47.75921" lon="7.06064">
        <ele>397</ele>
        <time>2016-08-13T08:45:19Z</time>
      </trkpt>
      <trkpt lat="47.75923" lon="7.06082">
        <ele>394</ele>
        <time>2016-08-13T08:45:31Z</time>
      </trkpt>
      <trkpt lat="47.75921" lon="7.06099">
        <ele>396</ele>
        <time>2016-08-13T08:45:45Z</time>
      </trkpt>
      <trkpt lat="47.75921" lon="7.0612">
        <ele>395</ele>
        <time>2016-08-13T08:46:00Z</time>
      </trkpt>
      <trkpt lat="47.75916" lon="7.06142">
        <ele>397</ele>
        <time>2016-08-13T08:46:18Z</time>
      </trkpt>
      <trkpt lat="47.75913" lon="7.06158">
        <ele>396</ele>
        <time>2016-08-13T08:46:25Z</time>
      </trkpt>
      <trkpt lat="47.75914" lon="7.06159">
        <ele>396</ele>
        <time>2016-08-13T08:46:34Z</time>
      </trkpt>
      <trkpt lat="47.75908" lon="7.06185">
        <ele>400</ele>
        <time>2016-08-13T08:46:54Z</time>
      </trkpt>
      <trkpt lat="47.75908" lon="7.06204">
        <ele>404</ele>
        <time>2016-08-13T08:47:00Z</time>
      </trkpt>
      <trkpt lat="47.75908" lon="7.06204">
        <ele>404</ele>
        <time>2016-08-13T08:47:05Z</time>
      </trkpt>
      <trkpt lat="47.75901" lon="7.06207">
        <ele>402</ele>
        <time>2016-08-13T08:47:06Z</time>
      </trkpt>
      <trkpt lat="47.75899" lon="7.06226">
        <ele>404</ele>
        <time>2016-08-13T08:47:17Z</time>
      </trkpt>
      <trkpt lat="47.75896" lon="7.06244">
        <ele>403</ele>
        <time>2016-08-13T08:47:27Z</time>
      </trkpt>
      <trkpt lat="47.75888" lon="7.06262">
        <ele>402</ele>
        <time>2016-08-13T08:47:41Z</time>
      </trkpt>
      <trkpt lat="47.75887" lon="7.06268">
        <ele>402</ele>
        <time>2016-08-13T08:47:46Z</time>
      </trkpt>
      <trkpt lat="47.75889" lon="7.06276">
        <ele>401</ele>
        <time>2016-08-13T08:47:55Z</time>
      </trkpt>
      <trkpt lat="47.7589" lon="7.06308">
        <ele>399</ele>
        <time>2016-08-13T08:48:08Z</time>
      </trkpt>
      <trkpt lat="47.75885" lon="7.06342">
        <ele>398</ele>
        <time>2016-08-13T08:48:31Z</time>
      </trkpt>
      <trkpt lat="47.75884" lon="7.06366">
        <ele>400</ele>
        <time>2016-08-13T08:48:42Z</time>
      </trkpt>
      <trkpt lat="47.75886" lon="7.06402">
        <ele>405</ele>
        <time>2016-08-13T08:49:01Z</time>
      </trkpt>
      <trkpt lat="47.75882" lon="7.06436">
        <ele>404</ele>
        <time>2016-08-13T08:49:18Z</time>
      </trkpt>
      <trkpt lat="47.75883" lon="7.06447">
        <ele>405</ele>
        <time>2016-08-13T08:49:27Z</time>
      </trkpt>
      <trkpt lat="47.75893" lon="7.06472">
        <ele>398</ele>
        <time>2016-08-13T08:49:45Z</time>
      </trkpt>
      <trkpt lat="47.75909" lon="7.06488">
        <ele>395</ele>
        <time>2016-08-13T08:50:05Z</time>
      </trkpt>
      <trkpt lat="47.75913" lon="7.06488">
        <ele>395</ele>
        <time>2016-08-13T08:50:11Z</time>
      </trkpt>
      <trkpt lat="47.75909" lon="7.06488">
        <ele>395</ele>
        <time>2016-08-13T08:50:20Z</time>
      </trkpt>
      <trkpt lat="47.75898" lon="7.06515">
        <ele>394</ele>
        <time>2016-08-13T08:51:22Z</time>
      </trkpt>
      <trkpt lat="47.75879" lon="7.06519">
        <ele>399</ele>
        <time>2016-08-13T08:51:35Z</time>
      </trkpt>
      <trkpt lat="47.75867" lon="7.06517">
        <ele>401</ele>
        <time>2016-08-13T08:51:45Z</time>
      </trkpt>
      <trkpt lat="47.75858" lon="7.06514">
        <ele>401</ele>
        <time>2016-08-13T08:51:53Z</time>
      </trkpt>
      <trkpt lat="47.75857" lon="7.06492">
        <ele>400</ele>
        <time>2016-08-13T08:52:10Z</time>
      </trkpt>
      <trkpt lat="47.75857" lon="7.06492">
        <ele>400</ele>
        <time>2016-08-13T08:52:18Z</time>
      </trkpt>
      <trkpt lat="47.75857" lon="7.06492">
        <ele>400</ele>
        <time>2016-08-13T08:52:19Z</time>
      </trkpt>
      <trkpt lat="47.75861" lon="7.06471">
        <ele>401</ele>
        <time>2016-08-13T08:52:32Z</time>
      </trkpt>
      <trkpt lat="47.75862" lon="7.0644">
        <ele>399</ele>
        <time>2016-08-13T08:52:51Z</time>
      </trkpt>
      <trkpt lat="47.75858" lon="7.06416">
        <ele>398</ele>
        <time>2016-08-13T08:53:04Z</time>
      </trkpt>
      <trkpt lat="47.7586" lon="7.06389">
        <ele>398</ele>
        <time>2016-08-13T08:53:17Z</time>
      </trkpt>
      <trkpt lat="47.75862" lon="7.06355">
        <ele>401</ele>
        <time>2016-08-13T08:53:34Z</time>
      </trkpt>
      <trkpt lat="47.75862" lon="7.06355">
        <ele>401</ele>
        <time>2016-08-13T08:53:39Z</time>
      </trkpt>
      <trkpt lat="47.75862" lon="7.06355">
        <ele>401</ele>
        <time>2016-08-13T08:53:40Z</time>
      </trkpt>
      <trkpt lat="47.75862" lon="7.06333">
        <ele>398</ele>
        <time>2016-08-13T08:53:51Z</time>
      </trkpt>
      <trkpt lat="47.75861" lon="7.06312">
        <ele>397</ele>
        <time>2016-08-13T08:54:04Z</time>
      </trkpt>
      <trkpt lat="47.75864" lon="7.06288">
        <ele>400</ele>
        <time>2016-08-13T08:54:18Z</time>
      </trkpt>
      <trkpt lat="47.75868" lon="7.06266">
        <ele>398</ele>
        <time>2016-08-13T08:54:35Z</time>
      </trkpt>
      <trkpt lat="47.75869" lon="7.06234">
        <ele>399</ele>
        <time>2016-08-13T08:54:53Z</time>
      </trkpt>
      <trkpt lat="47.75873" lon="7.06208">
        <ele>400</ele>
        <time>2016-08-13T08:55:09Z</time>
      </trkpt>
      <trkpt lat="47.75875" lon="7.06191">
        <ele>401</ele>
        <time>2016-08-13T08:55:19Z</time>
      </trkpt>
      <trkpt lat="47.75883" lon="7.06157">
        <ele>401</ele>
        <time>2016-08-13T08:55:35Z</time>
      </trkpt>
      <trkpt lat="47.75885" lon="7.06133">
        <ele>401</ele>
        <time>2016-08-13T08:55:51Z</time>
      </trkpt>
      <trkpt lat="47.75887" lon="7.06112">
        <ele>403</ele>
        <time>2016-08-13T08:56:04Z</time>
      </trkpt>
      <trkpt lat="47.75894" lon="7.06088">
        <ele>402</ele>
        <time>2016-08-13T08:56:18Z</time>
      </trkpt>
      <trkpt lat="47.75901" lon="7.06068">
        <ele>399</ele>
        <time>2016-08-13T08:56:34Z</time>
      </trkpt>
      <trkpt lat="47.75906" lon="7.0605">
        <ele>400</ele>
        <time>2016-08-13T08:56:45Z</time>
      </trkpt>
      <trkpt lat="47.75909" lon="7.06021">
        <ele>400</ele>
        <time>2016-08-13T08:57:01Z</time>
      </trkpt>
      <trkpt lat="47.75914" lon="7.05993">
        <ele>397</ele>
        <time>2016-08-13T08:57:18Z</time>
      </trkpt>
      <trkpt lat="47.75917" lon="7.05957">
        <ele>401</ele>
        <time>2016-08-13T08:57:36Z</time>
      </trkpt>
      <trkpt lat="47.75916" lon="7.05927">
        <ele>399</ele>
        <time>2016-08-13T08:57:55Z</time>
      </trkpt>
      <trkpt lat="47.75917" lon="7.05912">
        <ele>399</ele>
        <time>2016-08-13T08:58:05Z</time>
      </trkpt>
      <trkpt lat="47.75927" lon="7.0588">
        <ele>398</ele>
        <time>2016-08-13T08:58:22Z</time>
      </trkpt>
      <trkpt lat="47.75929" lon="7.05858">
        <ele>402</ele>
        <time>2016-08-13T08:58:37Z</time>
      </trkpt>
      <trkpt lat="47.75929" lon="7.05834">
        <ele>404</ele>
        <time>2016-08-13T08:58:50Z</time>
      </trkpt>
      <trkpt lat="47.7593" lon="7.05812">
        <ele>404</ele>
        <time>2016-08-13T08:59:02Z</time>
      </trkpt>
      <trkpt lat="47.75924" lon="7.05782">
        <ele>409</ele>
        <time>2016-08-13T08:59:16Z</time>
      </trkpt>
      <trkpt lat="47.75918" lon="7.05768">
        <ele>406</ele>
        <time>2016-08-13T08:59:29Z</time>
      </trkpt>
      <trkpt lat="47.75903" lon="7.05747">
        <ele>405</ele>
        <time>2016-08-13T08:59:44Z</time>
      </trkpt>
      <trkpt lat="47.75899" lon="7.05729">
        <ele>404</ele>
        <time>2016-08-13T08:59:57Z</time>
      </trkpt>
      <trkpt lat="47.7591" lon="7.05724">
        <ele>402</ele>
        <time>2016-08-13T09:00:04Z</time>
      </trkpt>
      <trkpt lat="47.7591" lon="7.05724">
        <ele>402</ele>
        <time>2016-08-13T09:00:09Z</time>
      </trkpt>
      <trkpt lat="47.7591" lon="7.05724">
        <ele>402</ele>
        <time>2016-08-13T09:00:10Z</time>
      </trkpt>
      <trkpt lat="47.75912" lon="7.05702">
        <ele>402</ele>
        <time>2016-08-13T09:00:20Z</time>
      </trkpt>
      <trkpt lat="47.75913" lon="7.05685">
        <ele>402</ele>
        <time>2016-08-13T09:00:32Z</time>
      </trkpt>
      <trkpt lat="47.75913" lon="7.05656">
        <ele>402</ele>
        <time>2016-08-13T09:00:46Z</time>
      </trkpt>
      <trkpt lat="47.75916" lon="7.05641">
        <ele>403</ele>
        <time>2016-08-13T09:00:56Z</time>
      </trkpt>
      <trkpt lat="47.75916" lon="7.0563">
        <ele>403</ele>
        <time>2016-08-13T09:01:09Z</time>
      </trkpt>
      <trkpt lat="47.7592" lon="7.05598">
        <ele>404</ele>
        <time>2016-08-13T09:01:27Z</time>
      </trkpt>
      <trkpt lat="47.75923" lon="7.05565">
        <ele>401</ele>
        <time>2016-08-13T09:01:44Z</time>
      </trkpt>
      <trkpt lat="47.75921" lon="7.05548">
        <ele>404</ele>
        <time>2016-08-13T09:01:53Z</time>
      </trkpt>
      <trkpt lat="47.75926" lon="7.05532">
        <ele>401</ele>
        <time>2016-08-13T09:02:04Z</time>
      </trkpt>
      <trkpt lat="47.75936" lon="7.05505">
        <ele>400</ele>
        <time>2016-08-13T09:02:23Z</time>
      </trkpt>
      <trkpt lat="47.75942" lon="7.05487">
        <ele>404</ele>
        <time>2016-08-13T09:02:34Z</time>
      </trkpt>
      <trkpt lat="47.7595" lon="7.05451">
        <ele>403</ele>
        <time>2016-08-13T09:02:55Z</time>
      </trkpt>
      <trkpt lat="47.7595" lon="7.05418">
        <ele>401</ele>
        <time>2016-08-13T09:03:13Z</time>
      </trkpt>
      <trkpt lat="47.75949" lon="7.05387">
        <ele>403</ele>
        <time>2016-08-13T09:03:28Z</time>
      </trkpt>
      <trkpt lat="47.75946" lon="7.05359">
        <ele>405</ele>
        <time>2016-08-13T09:03:44Z</time>
      </trkpt>
      <trkpt lat="47.75941" lon="7.05338">
        <ele>404</ele>
        <time>2016-08-13T09:04:01Z</time>
      </trkpt>
      <trkpt lat="47.75931" lon="7.05304">
        <ele>406</ele>
        <time>2016-08-13T09:04:18Z</time>
      </trkpt>
      <trkpt lat="47.75928" lon="7.05299">
        <ele>408</ele>
        <time>2016-08-13T09:04:21Z</time>
      </trkpt>
      <trkpt lat="47.75923" lon="7.05289">
        <ele>409</ele>
        <time>2016-08-13T09:04:31Z</time>
      </trkpt>
      <trkpt lat="47.75914" lon="7.0527">
        <ele>413</ele>
        <time>2016-08-13T09:04:42Z</time>
      </trkpt>
      <trkpt lat="47.75907" lon="7.05247">
        <ele>408</ele>
        <time>2016-08-13T09:04:54Z</time>
      </trkpt>
      <trkpt lat="47.759" lon="7.05223">
        <ele>408</ele>
        <time>2016-08-13T09:05:07Z</time>
      </trkpt>
      <trkpt lat="47.75895" lon="7.05199">
        <ele>408</ele>
        <time>2016-08-13T09:05:23Z</time>
      </trkpt>
      <trkpt lat="47.75892" lon="7.05174">
        <ele>407</ele>
        <time>2016-08-13T09:05:31Z</time>
      </trkpt>
      <trkpt lat="47.75893" lon="7.05168">
        <ele>408</ele>
        <time>2016-08-13T09:05:33Z</time>
      </trkpt>
      <trkpt lat="47.75891" lon="7.05153">
        <ele>408</ele>
        <time>2016-08-13T09:05:44Z</time>
      </trkpt>
      <trkpt lat="47.75887" lon="7.05127">
        <ele>412</ele>
        <time>2016-08-13T09:05:57Z</time>
      </trkpt>
      <trkpt lat="47.75885" lon="7.05112">
        <ele>409</ele>
        <time>2016-08-13T09:06:06Z</time>
      </trkpt>
      <trkpt lat="47.75884" lon="7.05085">
        <ele>412</ele>
        <time>2016-08-13T09:06:19Z</time>
      </trkpt>
      <trkpt lat="47.75878" lon="7.05058">
        <ele>408</ele>
        <time>2016-08-13T09:06:35Z</time>
      </trkpt>
      <trkpt lat="47.75877" lon="7.05044">
        <ele>405</ele>
        <time>2016-08-13T09:06:44Z</time>
      </trkpt>
      <trkpt lat="47.75877" lon="7.0501">
        <ele>406</ele>
        <time>2016-08-13T09:07:01Z</time>
      </trkpt>
      <trkpt lat="47.7588" lon="7.04981">
        <ele>408</ele>
        <time>2016-08-13T09:07:15Z</time>
      </trkpt>
      <trkpt lat="47.75881" lon="7.04961">
        <ele>408</ele>
        <time>2016-08-13T09:07:28Z</time>
      </trkpt>
      <trkpt lat="47.75889" lon="7.04933">
        <ele>407</ele>
        <time>2016-08-13T09:07:46Z</time>
      </trkpt>
      <trkpt lat="47.75892" lon="7.04907">
        <ele>409</ele>
        <time>2016-08-13T09:07:59Z</time>
      </trkpt>
      <trkpt lat="47.75897" lon="7.04887">
        <ele>407</ele>
        <time>2016-08-13T09:08:11Z</time>
      </trkpt>
      <trkpt lat="47.759" lon="7.04863">
        <ele>409</ele>
        <time>2016-08-13T09:08:22Z</time>
      </trkpt>
      <trkpt lat="47.75905" lon="7.04845">
        <ele>412</ele>
        <time>2016-08-13T09:08:31Z</time>
      </trkpt>
      <trkpt lat="47.75899" lon="7.04818">
        <ele>411</ele>
        <time>2016-08-13T09:08:44Z</time>
      </trkpt>
      <trkpt lat="47.75907" lon="7.04803">
        <ele>413</ele>
        <time>2016-08-13T09:08:52Z</time>
      </trkpt>
      <trkpt lat="47.75904" lon="7.04797">
        <ele>408</ele>
        <time>2016-08-13T09:08:56Z</time>
      </trkpt>
      <trkpt lat="47.75907" lon="7.0478">
        <ele>408</ele>
        <time>2016-08-13T09:09:08Z</time>
      </trkpt>
      <trkpt lat="47.75912" lon="7.04746">
        <ele>410</ele>
        <time>2016-08-13T09:09:25Z</time>
      </trkpt>
      <trkpt lat="47.75908" lon="7.04716">
        <ele>412</ele>
        <time>2016-08-13T09:09:40Z</time>
      </trkpt>
      <trkpt lat="47.75908" lon="7.04716">
        <ele>412</ele>
        <time>2016-08-13T09:09:45Z</time>
      </trkpt>
      <trkpt lat="47.75902" lon="7.04705">
        <ele>413</ele>
        <time>2016-08-13T09:09:50Z</time>
      </trkpt>
      <trkpt lat="47.75899" lon="7.04675">
        <ele>414</ele>
        <time>2016-08-13T09:10:05Z</time>
      </trkpt>
      <trkpt lat="47.75889" lon="7.04656">
        <ele>417</ele>
        <time>2016-08-13T09:10:18Z</time>
      </trkpt>
      <trkpt lat="47.75886" lon="7.04636">
        <ele>414</ele>
        <time>2016-08-13T09:10:30Z</time>
      </trkpt>
      <trkpt lat="47.75884" lon="7.04611">
        <ele>416</ele>
        <time>2016-08-13T09:10:42Z</time>
      </trkpt>
      <trkpt lat="47.75884" lon="7.04595">
        <ele>413</ele>
        <time>2016-08-13T09:10:54Z</time>
      </trkpt>
      <trkpt lat="47.7588" lon="7.04565">
        <ele>412</ele>
        <time>2016-08-13T09:11:10Z</time>
      </trkpt>
      <trkpt lat="47.75871" lon="7.04536">
        <ele>411</ele>
        <time>2016-08-13T09:11:28Z</time>
      </trkpt>
      <trkpt lat="47.75875" lon="7.04515">
        <ele>412</ele>
        <time>2016-08-13T09:11:41Z</time>
      </trkpt>
      <trkpt lat="47.75875" lon="7.04478">
        <ele>414</ele>
        <time>2016-08-13T09:11:56Z</time>
      </trkpt>
      <trkpt lat="47.75868" lon="7.04371">
        <ele>409</ele>
        <time>2016-08-13T09:12:57Z</time>
      </trkpt>
      <trkpt lat="47.75875" lon="7.04363">
        <ele>412</ele>
        <time>2016-08-13T09:13:02Z</time>
      </trkpt>
      <trkpt lat="47.75876" lon="7.04353">
        <ele>410</ele>
        <time>2016-08-13T09:13:15Z</time>
      </trkpt>
      <trkpt lat="47.75876" lon="7.04335">
        <ele>415</ele>
        <time>2016-08-13T09:13:26Z</time>
      </trkpt>
      <trkpt lat="47.75874" lon="7.04315">
        <ele>416</ele>
        <time>2016-08-13T09:13:38Z</time>
      </trkpt>
      <trkpt lat="47.75871" lon="7.04282">
        <ele>418</ele>
        <time>2016-08-13T09:13:56Z</time>
      </trkpt>
      <trkpt lat="47.75872" lon="7.04258">
        <ele>411</ele>
        <time>2016-08-13T09:14:13Z</time>
      </trkpt>
      <trkpt lat="47.75873" lon="7.04236">
        <ele>410</ele>
        <time>2016-08-13T09:14:24Z</time>
      </trkpt>
      <trkpt lat="47.75858" lon="7.04211">
        <ele>416</ele>
        <time>2016-08-13T09:14:40Z</time>
      </trkpt>
      <trkpt lat="47.7584" lon="7.0422">
        <ele>417</ele>
        <time>2016-08-13T09:14:56Z</time>
      </trkpt>
      <trkpt lat="47.75825" lon="7.0422">
        <ele>416</ele>
        <time>2016-08-13T09:15:09Z</time>
      </trkpt>
      <trkpt lat="47.75804" lon="7.04217">
        <ele>412</ele>
        <time>2016-08-13T09:15:26Z</time>
      </trkpt>
      <trkpt lat="47.75786" lon="7.04217">
        <ele>412</ele>
        <time>2016-08-13T09:15:41Z</time>
      </trkpt>
      <trkpt lat="47.75765" lon="7.04222">
        <ele>416</ele>
        <time>2016-08-13T09:15:58Z</time>
      </trkpt>
      <trkpt lat="47.75749" lon="7.04223">
        <ele>416</ele>
        <time>2016-08-13T09:16:13Z</time>
      </trkpt>
      <trkpt lat="47.75734" lon="7.04222">
        <ele>421</ele>
        <time>2016-08-13T09:16:24Z</time>
      </trkpt>
      <trkpt lat="47.75725" lon="7.0422">
        <ele>421</ele>
        <time>2016-08-13T09:16:31Z</time>
      </trkpt>
      <trkpt lat="47.75725" lon="7.04207">
        <ele>426</ele>
        <time>2016-08-13T09:16:43Z</time>
      </trkpt>
      <trkpt lat="47.75729" lon="7.04187">
        <ele>424</ele>
        <time>2016-08-13T09:16:54Z</time>
      </trkpt>
      <trkpt lat="47.7572" lon="7.04169">
        <ele>423</ele>
        <time>2016-08-13T09:17:07Z</time>
      </trkpt>
      <trkpt lat="47.75712" lon="7.0417">
        <ele>421</ele>
        <time>2016-08-13T09:17:14Z</time>
      </trkpt>
      <trkpt lat="47.75712" lon="7.0417">
        <ele>421</ele>
        <time>2016-08-13T09:17:21Z</time>
      </trkpt>
      <trkpt lat="47.75712" lon="7.0417">
        <ele>421</ele>
        <time>2016-08-13T09:17:22Z</time>
      </trkpt>
      <trkpt lat="47.75718" lon="7.04138">
        <ele>417</ele>
        <time>2016-08-13T09:17:33Z</time>
      </trkpt>
      <trkpt lat="47.75721" lon="7.04125">
        <ele>414</ele>
        <time>2016-08-13T09:17:43Z</time>
      </trkpt>
      <trkpt lat="47.75724" lon="7.04094">
        <ele>415</ele>
        <time>2016-08-13T09:18:02Z</time>
      </trkpt>
      <trkpt lat="47.75725" lon="7.04065">
        <ele>417</ele>
        <time>2016-08-13T09:18:21Z</time>
      </trkpt>
      <trkpt lat="47.75729" lon="7.04033">
        <ele>417</ele>
        <time>2016-08-13T09:18:41Z</time>
      </trkpt>
      <trkpt lat="47.75735" lon="7.04021">
        <ele>420</ele>
        <time>2016-08-13T09:18:49Z</time>
      </trkpt>
      <trkpt lat="47.75738" lon="7.04013">
        <ele>419</ele>
        <time>2016-08-13T09:19:05Z</time>
      </trkpt>
      <trkpt lat="47.75747" lon="7.03993">
        <ele>417</ele>
        <time>2016-08-13T09:19:15Z</time>
      </trkpt>
      <trkpt lat="47.75749" lon="7.03979">
        <ele>420</ele>
        <time>2016-08-13T09:19:20Z</time>
      </trkpt>
      <trkpt lat="47.7575" lon="7.03964">
        <ele>418</ele>
        <time>2016-08-13T09:19:28Z</time>
      </trkpt>
      <trkpt lat="47.75753" lon="7.03941">
        <ele>413</ele>
        <time>2016-08-13T09:19:39Z</time>
      </trkpt>
      <trkpt lat="47.75763" lon="7.03927">
        <ele>415</ele>
        <time>2016-08-13T09:19:54Z</time>
      </trkpt>
      <trkpt lat="47.75766" lon="7.03907">
        <ele>418</ele>
        <time>2016-08-13T09:20:04Z</time>
      </trkpt>
      <trkpt lat="47.75768" lon="7.03893">
        <ele>417</ele>
        <time>2016-08-13T09:20:12Z</time>
      </trkpt>
      <trkpt lat="47.75771" lon="7.03878">
        <ele>416</ele>
        <time>2016-08-13T09:20:21Z</time>
      </trkpt>
      <trkpt lat="47.75774" lon="7.0385">
        <ele>418</ele>
        <time>2016-08-13T09:20:39Z</time>
      </trkpt>
      <trkpt lat="47.75772" lon="7.03823">
        <ele>416</ele>
        <time>2016-08-13T09:20:50Z</time>
      </trkpt>
      <trkpt lat="47.7577" lon="7.03803">
        <ele>416</ele>
        <time>2016-08-13T09:21:03Z</time>
      </trkpt>
      <trkpt lat="47.75766" lon="7.03766">
        <ele>414</ele>
        <time>2016-08-13T09:21:22Z</time>
      </trkpt>
      <trkpt lat="47.75762" lon="7.03738">
        <ele>418</ele>
        <time>2016-08-13T09:21:36Z</time>
      </trkpt>
      <trkpt lat="47.75755" lon="7.03708">
        <ele>416</ele>
        <time>2016-08-13T09:21:55Z</time>
      </trkpt>
      <trkpt lat="47.75753" lon="7.03678">
        <ele>416</ele>
        <time>2016-08-13T09:22:09Z</time>
      </trkpt>
      <trkpt lat="47.75747" lon="7.03645">
        <ele>417</ele>
        <time>2016-08-13T09:22:26Z</time>
      </trkpt>
      <trkpt lat="47.75742" lon="7.03626">
        <ele>420</ele>
        <time>2016-08-13T09:22:38Z</time>
      </trkpt>
      <trkpt lat="47.75739" lon="7.0359">
        <ele>419</ele>
        <time>2016-08-13T09:22:58Z</time>
      </trkpt>
      <trkpt lat="47.75733" lon="7.03557">
        <ele>419</ele>
        <time>2016-08-13T09:23:14Z</time>
      </trkpt>
      <trkpt lat="47.75729" lon="7.03529">
        <ele>415</ele>
        <time>2016-08-13T09:23:28Z</time>
      </trkpt>
      <trkpt lat="47.75723" lon="7.03498">
        <ele>416</ele>
        <time>2016-08-13T09:23:43Z</time>
      </trkpt>
      <trkpt lat="47.7572" lon="7.03476">
        <ele>415</ele>
        <time>2016-08-13T09:23:56Z</time>
      </trkpt>
      <trkpt lat="47.75721" lon="7.03446">
        <ele>418</ele>
        <time>2016-08-13T09:24:12Z</time>
      </trkpt>
      <trkpt lat="47.7572" lon="7.03429">
        <ele>417</ele>
        <time>2016-08-13T09:24:22Z</time>
      </trkpt>
      <trkpt lat="47.75717" lon="7.03399">
        <ele>418</ele>
        <time>2016-08-13T09:24:36Z</time>
      </trkpt>
      <trkpt lat="47.7572" lon="7.03372">
        <ele>416</ele>
        <time>2016-08-13T09:24:50Z</time>
      </trkpt>
      <trkpt lat="47.75721" lon="7.03347">
        <ele>414</ele>
        <time>2016-08-13T09:25:05Z</time>
      </trkpt>
      <trkpt lat="47.75724" lon="7.03319">
        <ele>412</ele>
        <time>2016-08-13T09:25:19Z</time>
      </trkpt>
      <trkpt lat="47.75727" lon="7.03299">
        <ele>414</ele>
        <time>2016-08-13T09:25:30Z</time>
      </trkpt>
      <trkpt lat="47.75735" lon="7.03275">
        <ele>416</ele>
        <time>2016-08-13T09:25:43Z</time>
      </trkpt>
      <trkpt lat="47.7574" lon="7.03254">
        <ele>417</ele>
        <time>2016-08-13T09:25:53Z</time>
      </trkpt>
      <trkpt lat="47.75742" lon="7.03228">
        <ele>418</ele>
        <time>2016-08-13T09:26:06Z</time>
      </trkpt>
      <trkpt lat="47.75745" lon="7.0321">
        <ele>419</ele>
        <time>2016-08-13T09:26:17Z</time>
      </trkpt>
      <trkpt lat="47.75748" lon="7.03189">
        <ele>420</ele>
        <time>2016-08-13T09:26:28Z</time>
      </trkpt>
      <trkpt lat="47.75753" lon="7.03158">
        <ele>417</ele>
        <time>2016-08-13T09:26:43Z</time>
      </trkpt>
      <trkpt lat="47.75766" lon="7.03136">
        <ele>419</ele>
        <time>2016-08-13T09:26:56Z</time>
      </trkpt>
      <trkpt lat="47.75769" lon="7.03118">
        <ele>418</ele>
        <time>2016-08-13T09:27:09Z</time>
      </trkpt>
      <trkpt lat="47.7578" lon="7.03094">
        <ele>420</ele>
        <time>2016-08-13T09:27:23Z</time>
      </trkpt>
      <trkpt lat="47.75787" lon="7.03067">
        <ele>418</ele>
        <time>2016-08-13T09:27:39Z</time>
      </trkpt>
      <trkpt lat="47.75796" lon="7.0304">
        <ele>421</ele>
        <time>2016-08-13T09:27:55Z</time>
      </trkpt>
      <trkpt lat="47.75801" lon="7.03024">
        <ele>423</ele>
        <time>2016-08-13T09:28:04Z</time>
      </trkpt>
      <trkpt lat="47.75803" lon="7.03003">
        <ele>420</ele>
        <time>2016-08-13T09:28:15Z</time>
      </trkpt>
      <trkpt lat="47.7581" lon="7.0298">
        <ele>421</ele>
        <time>2016-08-13T09:28:28Z</time>
      </trkpt>
      <trkpt lat="47.75813" lon="7.02956">
        <ele>424</ele>
        <time>2016-08-13T09:28:41Z</time>
      </trkpt>
      <trkpt lat="47.75818" lon="7.02932">
        <ele>428</ele>
        <time>2016-08-13T09:29:00Z</time>
      </trkpt>
      <trkpt lat="47.7582" lon="7.02911">
        <ele>426</ele>
        <time>2016-08-13T09:29:10Z</time>
      </trkpt>
      <trkpt lat="47.75825" lon="7.02891">
        <ele>425</ele>
        <time>2016-08-13T09:29:18Z</time>
      </trkpt>
      <trkpt lat="47.75827" lon="7.0287">
        <ele>423</ele>
        <time>2016-08-13T09:29:30Z</time>
      </trkpt>
      <trkpt lat="47.75837" lon="7.02841">
        <ele>430</ele>
        <time>2016-08-13T09:29:45Z</time>
      </trkpt>
      <trkpt lat="47.75839" lon="7.02826">
        <ele>430</ele>
        <time>2016-08-13T09:29:56Z</time>
      </trkpt>
      <trkpt lat="47.75842" lon="7.02796">
        <ele>432</ele>
        <time>2016-08-13T09:30:13Z</time>
      </trkpt>
      <trkpt lat="47.75835" lon="7.02765">
        <ele>430</ele>
        <time>2016-08-13T09:30:30Z</time>
      </trkpt>
      <trkpt lat="47.75835" lon="7.02765">
        <ele>430</ele>
        <time>2016-08-13T09:30:35Z</time>
      </trkpt>
      <trkpt lat="47.75836" lon="7.02748">
        <ele>431</ele>
        <time>2016-08-13T09:30:41Z</time>
      </trkpt>
      <trkpt lat="47.7583" lon="7.02714">
        <ele>427</ele>
        <time>2016-08-13T09:31:00Z</time>
      </trkpt>
      <trkpt lat="47.75825" lon="7.02691">
        <ele>428</ele>
        <time>2016-08-13T09:31:13Z</time>
      </trkpt>
      <trkpt lat="47.75813" lon="7.02654">
        <ele>427</ele>
        <time>2016-08-13T09:31:34Z</time>
      </trkpt>
      <trkpt lat="47.75806" lon="7.02624">
        <ele>421</ele>
        <time>2016-08-13T09:31:51Z</time>
      </trkpt>
      <trkpt lat="47.75798" lon="7.02598">
        <ele>423</ele>
        <time>2016-08-13T09:32:06Z</time>
      </trkpt>
      <trkpt lat="47.75791" lon="7.02573">
        <ele>419</ele>
        <time>2016-08-13T09:32:22Z</time>
      </trkpt>
      <trkpt lat="47.75791" lon="7.02573">
        <ele>419</ele>
        <time>2016-08-13T09:32:27Z</time>
      </trkpt>
      <trkpt lat="47.75791" lon="7.02573">
        <ele>419</ele>
        <time>2016-08-13T09:32:28Z</time>
      </trkpt>
      <trkpt lat="47.75789" lon="7.02553">
        <ele>426</ele>
        <time>2016-08-13T09:32:37Z</time>
      </trkpt>
      <trkpt lat="47.75784" lon="7.02524">
        <ele>429</ele>
        <time>2016-08-13T09:32:52Z</time>
      </trkpt>
      <trkpt lat="47.75778" lon="7.02508">
        <ele>426</ele>
        <time>2016-08-13T09:32:59Z</time>
      </trkpt>
      <trkpt lat="47.75779" lon="7.02495">
        <ele>430</ele>
        <time>2016-08-13T09:33:11Z</time>
      </trkpt>
      <trkpt lat="47.75773" lon="7.02485">
        <ele>428</ele>
        <time>2016-08-13T09:33:23Z</time>
      </trkpt>
      <trkpt lat="47.75766" lon="7.02456">
        <ele>425</ele>
        <time>2016-08-13T09:33:35Z</time>
      </trkpt>
      <trkpt lat="47.75763" lon="7.02439">
        <ele>428</ele>
        <time>2016-08-13T09:33:42Z</time>
      </trkpt>
      <trkpt lat="47.75761" lon="7.02437">
        <ele>428</ele>
        <time>2016-08-13T09:33:43Z</time>
      </trkpt>
      <trkpt lat="47.7576" lon="7.02429">
        <ele>426</ele>
        <time>2016-08-13T09:33:49Z</time>
      </trkpt>
      <trkpt lat="47.7576" lon="7.02391">
        <ele>431</ele>
        <time>2016-08-13T09:34:19Z</time>
      </trkpt>
      <trkpt lat="47.75769" lon="7.02356">
        <ele>435</ele>
        <time>2016-08-13T09:34:36Z</time>
      </trkpt>
      <trkpt lat="47.75767" lon="7.0234">
        <ele>433</ele>
        <time>2016-08-13T09:34:44Z</time>
      </trkpt>
      <trkpt lat="47.75765" lon="7.02326">
        <ele>429</ele>
        <time>2016-08-13T09:34:54Z</time>
      </trkpt>
      <trkpt lat="47.75769" lon="7.02306">
        <ele>429</ele>
        <time>2016-08-13T09:35:06Z</time>
      </trkpt>
      <trkpt lat="47.75771" lon="7.02285">
        <ele>432</ele>
        <time>2016-08-13T09:35:18Z</time>
      </trkpt>
      <trkpt lat="47.75778" lon="7.02265">
        <ele>437</ele>
        <time>2016-08-13T09:35:31Z</time>
      </trkpt>
      <trkpt lat="47.7578" lon="7.02235">
        <ele>432</ele>
        <time>2016-08-13T09:35:46Z</time>
      </trkpt>
      <trkpt lat="47.75783" lon="7.02214">
        <ele>436</ele>
        <time>2016-08-13T09:35:58Z</time>
      </trkpt>
      <trkpt lat="47.75785" lon="7.02187">
        <ele>432</ele>
        <time>2016-08-13T09:36:14Z</time>
      </trkpt>
      <trkpt lat="47.75785" lon="7.02153">
        <ele>430</ele>
        <time>2016-08-13T09:36:35Z</time>
      </trkpt>
      <trkpt lat="47.75783" lon="7.02132">
        <ele>430</ele>
        <time>2016-08-13T09:36:45Z</time>
      </trkpt>
      <trkpt lat="47.7578" lon="7.02098">
        <ele>428</ele>
        <time>2016-08-13T09:37:03Z</time>
      </trkpt>
      <trkpt lat="47.7578" lon="7.02076">
        <ele>431</ele>
        <time>2016-08-13T09:37:14Z</time>
      </trkpt>
      <trkpt lat="47.75783" lon="7.02068">
        <ele>434</ele>
        <time>2016-08-13T09:37:18Z</time>
      </trkpt>
      <trkpt lat="47.75776" lon="7.02052">
        <ele>434</ele>
        <time>2016-08-13T09:37:29Z</time>
      </trkpt>
      <trkpt lat="47.7577" lon="7.02034">
        <ele>437</ele>
        <time>2016-08-13T09:37:42Z</time>
      </trkpt>
      <trkpt lat="47.75776" lon="7.0201">
        <ele>435</ele>
        <time>2016-08-13T09:37:57Z</time>
      </trkpt>
      <trkpt lat="47.75776" lon="7.0201">
        <ele>435</ele>
        <time>2016-08-13T09:38:03Z</time>
      </trkpt>
      <trkpt lat="47.75776" lon="7.0201">
        <ele>435</ele>
        <time>2016-08-13T09:38:04Z</time>
      </trkpt>
      <trkpt lat="47.75762" lon="7.01997">
        <ele>439</ele>
        <time>2016-08-13T09:38:17Z</time>
      </trkpt>
      <trkpt lat="47.7576" lon="7.01976">
        <ele>435</ele>
        <time>2016-08-13T09:38:27Z</time>
      </trkpt>
      <trkpt lat="47.75752" lon="7.01955">
        <ele>434</ele>
        <time>2016-08-13T09:38:36Z</time>
      </trkpt>
      <trkpt lat="47.75742" lon="7.01934">
        <ele>430</ele>
        <time>2016-08-13T09:38:46Z</time>
      </trkpt>
      <trkpt lat="47.75734" lon="7.01919">
        <ele>430</ele>
        <time>2016-08-13T09:38:52Z</time>
      </trkpt>
      <trkpt lat="47.75731" lon="7.01914">
        <ele>428</ele>
        <time>2016-08-13T09:38:59Z</time>
      </trkpt>
      <trkpt lat="47.75722" lon="7.01891">
        <ele>427</ele>
        <time>2016-08-13T09:39:16Z</time>
      </trkpt>
      <trkpt lat="47.75722" lon="7.01891">
        <ele>427</ele>
        <time>2016-08-13T09:39:24Z</time>
      </trkpt>
      <trkpt lat="47.75716" lon="7.01872">
        <ele>431</ele>
        <time>2016-08-13T09:39:31Z</time>
      </trkpt>
      <trkpt lat="47.75716" lon="7.01872">
        <ele>431</ele>
        <time>2016-08-13T09:39:36Z</time>
      </trkpt>
      <trkpt lat="47.75716" lon="7.01872">
        <ele>431</ele>
        <time>2016-08-13T09:39:37Z</time>
      </trkpt>
      <trkpt lat="47.75724" lon="7.01856">
        <ele>435</ele>
        <time>2016-08-13T09:39:50Z</time>
      </trkpt>
      <trkpt lat="47.75741" lon="7.01848">
        <ele>440</ele>
        <time>2016-08-13T09:40:04Z</time>
      </trkpt>
      <trkpt lat="47.75759" lon="7.01846">
        <ele>436</ele>
        <time>2016-08-13T09:40:22Z</time>
      </trkpt>
      <trkpt lat="47.75775" lon="7.01847">
        <ele>434</ele>
        <time>2016-08-13T09:40:30Z</time>
      </trkpt>
      <trkpt lat="47.75783" lon="7.01844">
        <ele>432</ele>
        <time>2016-08-13T09:40:37Z</time>
      </trkpt>
      <trkpt lat="47.75783" lon="7.01844">
        <ele>381</ele>
        <time>2016-08-13T09:40:45Z</time>
      </trkpt>
      <trkpt lat="47.75783" lon="7.01844">
        <ele>381</ele>
        <time>2016-08-13T09:40:51Z</time>
      </trkpt>
    </trkseg>
  </trk>
</gpx>